createdAt,value
2022-09-02T20:53:39.545Z,0.40
2022-09-02T20:57:15.414Z,0.20
2022-09-02T21:00:14.232Z,0.40
2022-09-02T21:03:12.352Z,3.30
2022-09-02T21:06:03.140Z,0.20
2022-09-02T21:09:19.898Z,0.45
2022-09-02T21:12:43.283Z,1.23
2022-09-02T21:15:55.844Z,2.28
2022-09-02T21:19:13.379Z,1.30
2022-09-02T21:22:14.168Z,0.82
2022-09-02T21:25:08.195Z,0.55
2022-09-02T21:28:43.706Z,0.17
2022-09-02T21:31:48.071Z,0.28
2022-09-02T21:34:57.980Z,0.20
2022-09-02T21:37:53.583Z,0.47
2022-09-02T21:40:43.942Z,0.10
2022-09-02T21:44:02.421Z,0.47
2022-09-02T21:47:10.105Z,0.57
2022-09-02T21:50:10.334Z,0.20
2022-09-02T21:53:00.809Z,0.10
2022-09-02T21:56:12.790Z,0.20
2022-09-02T21:59:03.786Z,0.15
2022-09-02T22:02:16.636Z,0.25
2022-09-02T22:05:22.014Z,0.22
2022-09-02T22:08:24.487Z,0.20
2022-09-02T22:11:32.771Z,0.17
2022-09-02T22:14:23.309Z,0.10
2022-09-02T22:17:34.368Z,0.20
2022-09-02T22:20:31.310Z,0.50
2022-09-02T22:23:26.307Z,0.20
2022-09-02T22:26:39.991Z,0.20
2022-09-02T22:29:37.913Z,0.10
2022-09-02T22:32:32.044Z,0.10
2022-09-02T22:35:34.327Z,0.35
2022-09-02T22:38:36.569Z,0.13
2022-09-02T22:44:49.400Z,0.20
2022-09-02T22:48:08.935Z,0.10
2022-09-02T22:51:22.949Z,0.50
2022-09-02T22:54:10.539Z,2.70
2022-09-02T22:57:11.277Z,0.43
2022-09-02T23:00:04.755Z,0.50
2022-09-02T23:03:21.208Z,0.30
2022-09-02T23:06:39.302Z,0.32
2022-09-02T23:09:27.057Z,2.05
2022-09-02T23:12:41.517Z,0.75
2022-09-02T23:15:48.177Z,0.80
2022-09-02T23:19:04.241Z,1.70
2022-09-02T23:22:04.034Z,2.03
2022-09-02T23:25:03.442Z,3.53
2022-09-02T23:28:04.913Z,6.07
2022-09-02T23:31:01.325Z,2.95
2022-09-02T23:34:25.079Z,3.85
2022-09-02T23:37:40.011Z,3.25
2022-09-02T23:40:30.800Z,3.95
2022-09-02T23:43:19.255Z,3.30
2022-09-02T23:46:39.083Z,2.63
2022-09-02T23:49:38.576Z,3.83
2022-09-02T23:52:59.420Z,3.50
2022-09-02T23:56:09.791Z,12.43
2022-09-02T23:59:34.701Z,4.78
